Terminal Aerodrome Forecast
Issued by NWS

Home | Current Version | Previous Version | Text Only | Print | Product List | Glossary Off
Versions: 1 2 3 4 5 6 7 8 9 10 11 12 13 14 15 16 17 18 19 20

590
FTUS43 KICT 182018 AAA
TAFCNU
TAF AMD
KCNU 182018Z 1820/1918 18023G33KT P6SM SCT020 BKN200
      TEMPO 1820/1823 BKN025
     FM190000 18018G26KT P6SM SCT012 BKN035
     FM190400 17016G24KT P6SM BKN008 WS020/21050KT
     FM190900 18017G25KT P6SM VCTS OVC008CB WS020/21050KT
     FM191400 19022G31KT P6SM VCSH OVC008=

USA.gov is the U.S. government's official web portal to all federal, state and local government web resources and services.